createdAt,value
2023-01-17T00:01:25.058Z,81.00
2023-01-17T00:03:51.928Z,81.00
2023-01-17T00:06:18.666Z,81.00
2023-01-17T00:08:45.416Z,81.10
2023-01-17T00:11:12.137Z,81.10
2023-01-17T00:13:38.926Z,81.20
2023-01-17T00:16:05.999Z,81.10
2023-01-17T00:18:32.804Z,81.00
2023-01-17T00:20:59.524Z,81.00
2023-01-17T00:23:26.295Z,81.00
2023-01-17T00:25:53.059Z,81.00
2023-01-17T00:28:19.818Z,81.00
2023-01-17T00:30:46.647Z,81.00
2023-01-17T00:33:13.598Z,81.00
2023-01-17T00:35:40.355Z,81.00
2023-01-17T00:38:10.677Z,80.90
2023-01-17T00:40:38.807Z,80.90
2023-01-17T00:43:05.664Z,80.90
2023-01-17T00:45:35.947Z,80.90
2023-01-17T00:48:02.941Z,81.00
2023-01-17T00:50:31.861Z,80.90
2023-01-17T00:53:01.103Z,80.90
2023-01-17T00:55:27.826Z,80.90
2023-01-17T00:57:54.485Z,80.80
2023-01-17T01:00:21.295Z,80.70
2023-01-17T01:02:48.084Z,80.70
2023-01-17T01:05:15.005Z,80.80
2023-01-17T01:07:41.744Z,80.90
2023-01-17T01:10:09.006Z,81.00
2023-01-17T01:12:35.692Z,81.00
2023-01-17T01:15:02.455Z,81.00
2023-01-17T01:17:29.216Z,81.00
2023-01-17T01:19:55.937Z,80.90
2023-01-17T01:22:22.692Z,80.90
2023-01-17T01:24:49.386Z,81.00
2023-01-17T01:27:16.088Z,81.00
2023-01-17T01:29:43.160Z,80.90
2023-01-17T01:32:09.916Z,81.60
2023-01-17T01:34:36.614Z,80.80
2023-01-17T01:37:03.368Z,80.70
2023-01-17T01:39:30.054Z,80.60
2023-01-17T01:41:56.781Z,80.60
2023-01-17T01:44:48.410Z,80.80
2023-01-17T01:47:21.245Z,80.90
2023-01-17T01:49:48.019Z,80.80
2023-01-17T01:52:14.751Z,80.80
2023-01-17T01:54:55.755Z,80.90
2023-01-17T01:57:24.237Z,80.90
2023-01-17T01:59:59.893Z,80.80
2023-01-17T02:02:27.770Z,80.80
2023-01-17T02:04:54.985Z,80.70
2023-01-17T02:07:26.000Z,80.80
2023-01-17T02:09:53.991Z,80.80
2023-01-17T02:12:21.542Z,80.80
2023-01-17T02:14:51.244Z,80.80
2023-01-17T02:17:39.804Z,80.80
2023-01-17T02:20:42.804Z,80.80
2023-01-17T02:23:29.400Z,80.70
2023-01-17T02:26:05.211Z,80.70
2023-01-17T02:28:44.214Z,80.80
2023-01-17T02:31:18.063Z,80.70
2023-01-17T02:33:53.872Z,81.40
2023-01-17T02:36:22.937Z,80.60
2023-01-17T02:39:08.626Z,80.60
2023-01-17T02:41:40.947Z,80.50
2023-01-17T02:44:11.196Z,80.50
2023-01-17T02:46:48.424Z,80.40
2023-01-17T02:49:16.119Z,80.40
2023-01-17T02:51:42.854Z,80.40
2023-01-17T02:54:36.355Z,80.50
2023-01-17T02:57:25.773Z,80.50
2023-01-17T03:00:04.592Z,80.60
2023-01-17T03:02:58.759Z,80.60
2023-01-17T03:05:37.045Z,80.70
2023-01-17T03:08:03.906Z,80.60
2023-01-17T03:10:32.561Z,80.60
2023-01-17T03:12:59.674Z,80.60
2023-01-17T03:15:26.656Z,80.80
2023-01-17T03:17:54.724Z,80.90
2023-01-17T03:20:24.554Z,80.80
2023-01-17T03:22:51.286Z,81.50
2023-01-17T03:25:18.025Z,80.60
2023-01-17T03:27:44.752Z,80.60
2023-01-17T03:30:11.825Z,80.60
2023-01-17T03:32:38.507Z,80.80
2023-01-17T03:35:05.668Z,80.80
2023-01-17T03:37:32.518Z,80.70
2023-01-17T03:39:59.239Z,80.70
2023-01-17T03:42:25.929Z,80.70
2023-01-17T03:44:52.597Z,80.60
2023-01-17T03:47:19.248Z,80.60
2023-01-17T03:49:45.941Z,80.50
2023-01-17T03:52:12.624Z,80.60
2023-01-17T03:54:39.380Z,80.60
2023-01-17T03:57:06.085Z,80.50
2023-01-17T03:59:32.760Z,80.50
2023-01-17T04:01:59.481Z,80.40
2023-01-17T04:04:26.210Z,80.40
2023-01-17T04:06:52.904Z,80.40
2023-01-17T04:09:19.570Z,80.50
2023-01-17T04:11:46.300Z,80.60
2023-01-17T04:14:13.064Z,80.50
2023-01-17T04:16:39.865Z,80.40
2023-01-17T04:19:06.604Z,80.40
2023-01-17T04:21:33.352Z,80.50
2023-01-17T04:24:00.038Z,80.70
2023-01-17T04:26:26.795Z,80.80
2023-01-17T04:28:53.510Z,80.70
2023-01-17T04:31:20.259Z,80.60
2023-01-17T04:33:47.049Z,80.80
2023-01-17T04:36:13.710Z,80.80
2023-01-17T04:38:40.405Z,80.50
2023-01-17T04:41:07.132Z,80.50
2023-01-17T04:43:33.881Z,80.40
2023-01-17T04:46:01.706Z,80.40
2023-01-17T04:48:29.071Z,80.50
2023-01-17T04:51:05.121Z,80.50
2023-01-17T04:53:32.025Z,80.70
2023-01-17T04:55:58.715Z,80.70
2023-01-17T04:58:25.449Z,80.70
2023-01-17T05:00:52.172Z,80.70
2023-01-17T05:03:19.632Z,80.60
2023-01-17T05:05:47.130Z,80.60
2023-01-17T05:08:14.088Z,80.60
2023-01-17T05:10:40.775Z,80.50
2023-01-17T05:13:07.494Z,80.40
2023-01-17T05:15:34.209Z,80.40
2023-01-17T05:18:00.956Z,80.60
2023-01-17T05:20:27.632Z,80.80
2023-01-17T05:22:57.299Z,80.70
2023-01-17T05:25:29.071Z,80.70
2023-01-17T05:27:56.014Z,80.70
2023-01-17T05:30:22.789Z,80.50
2023-01-17T05:32:50.163Z,80.50
2023-01-17T05:35:17.903Z,80.70
2023-01-17T05:37:44.643Z,80.70
2023-01-17T05:40:12.145Z,80.70
2023-01-17T05:42:38.842Z,80.70
2023-01-17T05:45:06.222Z,80.50
2023-01-17T05:47:32.927Z,80.60
2023-01-17T05:49:59.612Z,80.70
2023-01-17T05:52:26.365Z,80.90
2023-01-17T05:54:53.056Z,80.90
2023-01-17T05:57:19.749Z,80.70
2023-01-17T05:59:46.501Z,80.70
2023-01-17T06:02:13.224Z,80.50
2023-01-17T06:04:39.988Z,80.60
2023-01-17T06:07:06.719Z,80.60
2023-01-17T06:09:33.417Z,80.70
2023-01-17T06:12:00.132Z,80.60
2023-01-17T06:14:26.804Z,80.70
2023-01-17T06:16:53.512Z,80.70
2023-01-17T06:19:20.181Z,80.70
2023-01-17T06:21:46.955Z,80.70
2023-01-17T06:24:13.753Z,80.60
2023-01-17T06:26:40.445Z,80.60
2023-01-17T06:29:07.146Z,80.60
2023-01-17T06:31:33.883Z,80.60
2023-01-17T06:34:02.703Z,80.50
2023-01-17T06:36:29.763Z,80.50
2023-01-17T06:38:56.424Z,80.60
2023-01-17T06:41:23.113Z,81.50
2023-01-17T06:43:49.806Z,80.80
2023-01-17T06:46:16.539Z,80.90
2023-01-17T06:48:43.321Z,80.90
2023-01-17T06:51:10.291Z,80.80
2023-01-17T06:53:37.018Z,80.60
2023-01-17T06:56:03.800Z,80.60
2023-01-17T06:58:30.478Z,80.70
2023-01-17T07:00:57.246Z,80.70
2023-01-17T07:03:25.515Z,80.70
2023-01-17T07:05:52.383Z,80.80
2023-01-17T07:08:19.866Z,80.90
2023-01-17T07:10:46.961Z,80.90
2023-01-17T07:13:13.858Z,80.90
2023-01-17T07:15:40.629Z,80.80
2023-01-17T07:18:07.503Z,80.80
2023-01-17T07:20:34.196Z,80.60
2023-01-17T07:23:00.863Z,80.60
2023-01-17T07:25:27.840Z,80.70
2023-01-17T07:27:54.896Z,80.70
2023-01-17T07:30:21.722Z,80.60
2023-01-17T07:32:52.665Z,80.80
2023-01-17T07:35:19.464Z,80.80
2023-01-17T07:37:49.636Z,80.80
2023-01-17T07:40:17.359Z,80.80
2023-01-17T07:42:44.565Z,80.90
2023-01-17T07:45:12.296Z,80.90
2023-01-17T07:47:38.965Z,80.90
2023-01-17T07:50:06.092Z,80.90
2023-01-17T07:52:32.792Z,80.80
2023-01-17T07:54:59.516Z,80.80
2023-01-17T07:57:26.205Z,80.70
2023-01-17T07:59:52.985Z,80.80
2023-01-17T08:02:21.176Z,80.70
2023-01-17T08:04:47.891Z,80.70
2023-01-17T08:07:14.743Z,80.80
2023-01-17T08:09:42.214Z,80.80
2023-01-17T08:12:09.011Z,80.70
2023-01-17T08:14:35.897Z,80.70
2023-01-17T08:17:06.755Z,80.80
2023-01-17T08:19:36.700Z,80.80
2023-01-17T08:22:03.596Z,80.80
2023-01-17T08:24:30.451Z,80.90
2023-01-17T08:26:57.621Z,80.80
2023-01-17T08:29:28.623Z,80.90
2023-01-17T08:31:55.517Z,80.80
2023-01-17T08:34:22.228Z,80.80
2023-01-17T08:36:48.891Z,80.70
2023-01-17T08:39:15.579Z,80.70
2023-01-17T08:41:42.290Z,80.70
2023-01-17T08:44:09.198Z,80.70
2023-01-17T08:46:38.343Z,80.60
2023-01-17T08:49:05.066Z,80.50
2023-01-17T08:51:31.751Z,80.50
2023-01-17T08:53:58.574Z,80.60
2023-01-17T08:56:25.342Z,80.60
2023-01-17T08:58:52.035Z,80.60
2023-01-17T09:01:18.872Z,80.50
2023-01-17T09:03:45.655Z,80.40
2023-01-17T09:06:14.421Z,80.40
2023-01-17T09:08:41.578Z,80.50
2023-01-17T09:11:10.258Z,80.60
2023-01-17T09:13:36.934Z,80.50
2023-01-17T09:16:03.720Z,80.40
2023-01-17T09:18:30.594Z,80.20
2023-01-17T09:20:57.292Z,80.40
2023-01-17T09:23:24.110Z,80.40
2023-01-17T09:25:54.571Z,80.40
2023-01-17T09:28:21.372Z,80.40
2023-01-17T09:30:48.254Z,80.30
2023-01-17T09:33:15.208Z,80.30
2023-01-17T09:35:41.988Z,80.30
2023-01-17T09:38:08.729Z,80.10
2023-01-17T09:40:36.592Z,80.10
2023-01-17T09:43:05.551Z,80.10
2023-01-17T09:45:33.395Z,80.10
2023-01-17T09:48:00.858Z,80.00
2023-01-17T09:50:31.256Z,80.10
2023-01-17T09:53:02.894Z,80.10
2023-01-17T09:55:34.495Z,80.00
2023-01-17T09:58:42.609Z,79.90
2023-01-17T10:01:15.648Z,79.70
2023-01-17T10:03:46.369Z,79.60
2023-01-17T10:06:31.694Z,79.60
2023-01-17T10:09:19.488Z,79.60
2023-01-17T10:11:53.378Z,79.70
2023-01-17T10:14:41.632Z,79.70
2023-01-17T10:17:11.066Z,79.50
2023-01-17T10:19:46.828Z,79.30
2023-01-17T10:22:26.234Z,79.30
2023-01-17T10:25:08.648Z,79.30
2023-01-17T10:27:37.973Z,79.50
2023-01-17T10:30:13.749Z,79.50
2023-01-17T10:32:42.398Z,79.50
2023-01-17T10:35:16.475Z,79.50
2023-01-17T10:37:43.787Z,79.40
2023-01-17T10:40:18.430Z,79.30
2023-01-17T10:42:55.185Z,79.10
2023-01-17T10:45:24.253Z,79.00
2023-01-17T10:47:58.075Z,78.90
2023-01-17T10:50:24.815Z,78.80
2023-01-17T10:53:02.943Z,78.80
2023-01-17T10:55:38.658Z,78.90
2023-01-17T10:58:05.986Z,78.80
2023-01-17T11:00:41.971Z,78.60
2023-01-17T11:03:08.800Z,78.60
2023-01-17T11:05:35.557Z,78.50
2023-01-17T11:08:04.397Z,78.50
2023-01-17T11:10:36.980Z,78.40
2023-01-17T11:13:18.190Z,78.30
2023-01-17T11:15:47.403Z,78.20
2023-01-17T11:18:20.762Z,78.20
2023-01-17T11:20:47.434Z,78.30
2023-01-17T11:23:16.874Z,78.30
2023-01-17T11:25:57.050Z,78.20
2023-01-17T11:28:31.475Z,78.20
2023-01-17T11:31:00.166Z,78.00
2023-01-17T11:33:35.842Z,78.00
2023-01-17T11:36:02.530Z,77.90
2023-01-17T11:38:29.223Z,77.90
2023-01-17T11:40:55.897Z,77.90
2023-01-17T11:43:24.307Z,77.90
2023-01-17T11:46:13.594Z,77.70
2023-01-17T11:48:40.751Z,77.60
2023-01-17T11:51:28.705Z,77.50
2023-01-17T11:54:07.343Z,77.30
2023-01-17T11:56:36.628Z,77.40
2023-01-17T11:59:21.727Z,77.50
2023-01-17T12:01:54.892Z,77.30
2023-01-17T12:04:29.352Z,77.00
2023-01-17T12:06:59.155Z,76.40
2023-01-17T12:09:32.442Z,76.10
2023-01-17T12:12:36.127Z,75.70
2023-01-17T12:15:23.625Z,75.60
2023-01-17T12:18:16.310Z,75.50
2023-01-17T12:21:18.421Z,75.40
2023-01-17T12:23:58.206Z,75.70
2023-01-17T12:26:51.491Z,75.90
2023-01-17T12:29:34.210Z,75.90
2023-01-17T12:32:28.772Z,76.10
2023-01-17T12:35:01.793Z,76.10
2023-01-17T12:37:34.660Z,76.10
2023-01-17T12:40:20.564Z,76.20
2023-01-17T12:42:51.364Z,76.20
2023-01-17T12:45:27.923Z,76.20
2023-01-17T12:47:59.819Z,76.10
2023-01-17T12:50:36.398Z,76.00
2023-01-17T12:53:15.354Z,76.10
2023-01-17T12:55:50.411Z,76.20
2023-01-17T12:58:27.326Z,76.20
2023-01-17T13:01:07.247Z,77.00
2023-01-17T13:03:41.337Z,76.20
2023-01-17T13:06:08.110Z,76.10
2023-01-17T13:08:43.900Z,76.20
2023-01-17T13:11:16.696Z,76.20
2023-01-17T13:13:43.395Z,76.10
2023-01-17T13:16:18.853Z,76.10
2023-01-17T13:18:46.822Z,76.10
2023-01-17T13:21:32.716Z,76.10
2023-01-17T13:23:59.442Z,75.90
2023-01-17T13:26:36.200Z,75.90
2023-01-17T13:29:16.511Z,75.90
2023-01-17T13:31:57.001Z,75.90
2023-01-17T13:34:51.256Z,76.00
2023-01-17T13:37:59.051Z,76.20
2023-01-17T13:40:47.415Z,76.00
2023-01-17T13:43:18.658Z,76.10
2023-01-17T13:45:58.114Z,76.20
2023-01-17T13:48:25.619Z,76.20
2023-01-17T13:51:05.748Z,76.20
2023-01-17T13:53:35.177Z,76.20
2023-01-17T13:56:05.657Z,76.10
2023-01-17T13:58:56.791Z,76.10
2023-01-17T14:01:23.630Z,76.10
2023-01-17T14:03:50.427Z,76.10
2023-01-17T14:06:41.836Z,76.10
2023-01-17T14:09:08.797Z,76.20
2023-01-17T14:11:36.003Z,76.10
2023-01-17T14:14:35.519Z,76.00
2023-01-17T14:17:20.414Z,76.00
2023-01-17T14:20:06.790Z,76.10
2023-01-17T14:22:35.668Z,76.20
2023-01-17T14:25:20.218Z,76.40
2023-01-17T14:27:51.679Z,76.40
2023-01-17T14:30:24.341Z,76.30
2023-01-17T14:33:19.265Z,76.40
2023-01-17T14:35:55.072Z,76.30
2023-01-17T14:38:22.904Z,76.50
2023-01-17T14:41:00.004Z,76.50
2023-01-17T14:43:28.171Z,76.50
2023-01-17T14:46:02.658Z,76.60
2023-01-17T14:48:29.644Z,76.60
2023-01-17T14:50:56.952Z,76.60
2023-01-17T14:53:24.568Z,76.60
2023-01-17T14:55:52.265Z,76.70
2023-01-17T14:58:29.105Z,76.70
2023-01-17T15:01:01.036Z,76.80
2023-01-17T15:03:28.994Z,77.00
2023-01-17T15:05:56.332Z,76.90
2023-01-17T15:08:25.317Z,77.00
2023-01-17T15:11:00.818Z,77.00
2023-01-17T15:13:44.228Z,77.00
2023-01-17T15:16:18.932Z,77.00
2023-01-17T15:18:45.628Z,77.10
2023-01-17T15:21:14.771Z,77.10
2023-01-17T15:23:44.479Z,77.30
2023-01-17T15:26:13.403Z,77.30
2023-01-17T15:28:40.108Z,77.30
2023-01-17T15:31:16.872Z,77.40
2023-01-17T15:33:47.683Z,77.40
2023-01-17T15:36:14.434Z,77.60
2023-01-17T15:38:45.582Z,77.50
2023-01-17T15:41:16.079Z,77.60
2023-01-17T15:43:43.276Z,77.60
2023-01-17T15:46:38.905Z,77.70
2023-01-17T15:49:16.069Z,77.80
2023-01-17T15:51:51.094Z,77.70
2023-01-17T15:54:53.822Z,77.90
2023-01-17T15:57:29.774Z,78.00
2023-01-17T16:00:06.377Z,78.00
2023-01-17T16:02:36.993Z,78.00
2023-01-17T16:05:24.079Z,78.20
2023-01-17T16:07:58.609Z,78.40
2023-01-17T16:10:27.415Z,78.30
2023-01-17T16:12:54.327Z,78.40
2023-01-17T16:15:21.047Z,78.30
2023-01-17T16:17:49.780Z,78.40
2023-01-17T16:20:20.110Z,78.50
2023-01-17T16:22:47.497Z,78.50
2023-01-17T16:25:16.127Z,78.50
2023-01-17T16:27:43.073Z,78.60
2023-01-17T16:30:11.159Z,78.80
2023-01-17T16:32:38.309Z,78.80
2023-01-17T16:35:07.568Z,78.80
2023-01-17T16:37:34.281Z,78.90
2023-01-17T16:40:01.089Z,78.90
2023-01-17T16:42:28.613Z,78.90
2023-01-17T16:44:55.438Z,78.90
2023-01-17T16:47:22.223Z,79.00
2023-01-17T16:49:52.005Z,79.10
2023-01-17T16:52:18.703Z,79.10
2023-01-17T16:54:45.411Z,79.10
2023-01-17T16:57:12.162Z,79.10
2023-01-17T16:59:50.160Z,79.10
2023-01-17T17:02:17.371Z,79.10
2023-01-17T17:04:44.115Z,79.10
2023-01-17T17:07:10.888Z,79.10
2023-01-17T17:09:37.647Z,79.20
2023-01-17T17:12:04.759Z,79.30
2023-01-17T17:14:31.519Z,79.30
2023-01-17T17:17:01.872Z,79.30
2023-01-17T17:19:28.617Z,79.40
2023-01-17T17:21:58.161Z,79.40
2023-01-17T17:24:25.047Z,79.30
2023-01-17T17:26:51.769Z,79.30
2023-01-17T17:29:18.563Z,79.40
2023-01-17T17:31:45.289Z,79.40
2023-01-17T17:34:12.819Z,79.40
2023-01-17T17:36:39.560Z,80.30
2023-01-17T17:39:07.063Z,79.60
2023-01-17T17:41:34.498Z,79.60
2023-01-17T17:44:01.823Z,79.60
2023-01-17T17:46:28.837Z,79.60
2023-01-17T17:48:56.470Z,79.60
2023-01-17T17:51:30.793Z,79.60
2023-01-17T17:54:05.561Z,79.60
2023-01-17T17:56:32.439Z,79.60
2023-01-17T17:58:59.651Z,79.60
2023-01-17T18:01:26.527Z,79.60
2023-01-17T18:03:54.716Z,79.60
2023-01-17T18:06:21.683Z,79.70
2023-01-17T18:08:48.386Z,79.60
2023-01-17T18:11:19.749Z,79.70
2023-01-17T18:13:47.094Z,79.80
2023-01-17T18:16:14.802Z,79.80
2023-01-17T18:18:45.596Z,79.80
2023-01-17T18:21:15.011Z,79.90
2023-01-17T18:23:43.307Z,79.90
2023-01-17T18:26:23.241Z,79.90
2023-01-17T18:28:50.848Z,80.00
2023-01-17T18:31:17.643Z,80.00
2023-01-17T18:33:44.384Z,80.00
2023-01-17T18:36:11.732Z,80.10
2023-01-17T18:38:39.592Z,80.00
2023-01-17T18:41:07.231Z,80.00
2023-01-17T18:43:34.035Z,80.10
2023-01-17T18:46:00.929Z,80.20
2023-01-17T18:48:27.682Z,80.20
2023-01-17T18:51:01.479Z,80.20
2023-01-17T18:53:29.330Z,80.20
2023-01-17T18:55:58.483Z,80.20
2023-01-17T18:58:25.372Z,80.10
2023-01-17T19:00:52.450Z,80.20
2023-01-17T19:03:25.925Z,80.20
2023-01-17T19:05:52.700Z,80.20
2023-01-17T19:08:19.413Z,80.20
2023-01-17T19:10:46.154Z,80.30
2023-01-17T19:13:12.844Z,80.30
2023-01-17T19:15:39.580Z,80.40
2023-01-17T19:18:06.343Z,80.40
2023-01-17T19:20:34.901Z,80.40
2023-01-17T19:23:01.651Z,80.40
2023-01-17T19:25:28.480Z,80.40
2023-01-17T19:27:55.457Z,80.40
2023-01-17T19:30:22.576Z,80.40
2023-01-17T19:32:49.656Z,80.40
2023-01-17T19:35:17.058Z,80.40
2023-01-17T19:37:47.755Z,80.50
2023-01-17T19:40:15.316Z,80.50
2023-01-17T19:42:42.175Z,80.50
2023-01-17T19:45:10.170Z,80.50
2023-01-17T19:47:37.208Z,80.50
2023-01-17T19:50:04.852Z,80.50
2023-01-17T19:52:31.630Z,80.50
2023-01-17T19:54:58.539Z,80.50
2023-01-17T19:57:25.231Z,80.50
2023-01-17T19:59:51.972Z,80.70
2023-01-17T20:02:18.818Z,80.70
2023-01-17T20:04:45.599Z,80.70
2023-01-17T20:07:12.508Z,80.60
2023-01-17T20:09:39.212Z,80.70
2023-01-17T20:12:06.221Z,80.70
2023-01-17T20:14:32.934Z,80.70
2023-01-17T20:16:59.619Z,80.70
2023-01-17T20:19:26.381Z,80.70
2023-01-17T20:21:53.080Z,80.70
2023-01-17T20:24:19.891Z,80.80
2023-01-17T20:26:46.594Z,80.80
2023-01-17T20:29:14.599Z,80.70
2023-01-17T20:31:42.173Z,80.80
2023-01-17T20:34:10.089Z,80.90
2023-01-17T20:36:36.905Z,80.80
2023-01-17T20:39:04.783Z,80.90
2023-01-17T20:41:33.116Z,80.80
2023-01-17T20:44:00.713Z,80.90
2023-01-17T20:46:32.044Z,80.90
2023-01-17T20:48:58.811Z,80.90
2023-01-17T20:51:26.426Z,80.90
2023-01-17T20:53:55.024Z,80.80
2023-01-17T20:56:21.881Z,80.90
2023-01-17T20:58:49.587Z,80.90
2023-01-17T21:01:18.368Z,80.90
2023-01-17T21:03:45.391Z,80.90
2023-01-17T21:06:12.578Z,80.90
2023-01-17T21:08:40.433Z,81.00
2023-01-17T21:11:09.624Z,81.00
2023-01-17T21:13:36.463Z,81.00
2023-01-17T21:16:03.162Z,81.00
2023-01-17T21:18:29.894Z,81.30
2023-01-17T21:20:57.421Z,81.10
2023-01-17T21:23:24.111Z,81.20
2023-01-17T21:25:59.757Z,81.20
2023-01-17T21:28:28.303Z,81.20
2023-01-17T21:30:55.135Z,81.20
2023-01-17T21:33:22.589Z,81.30
2023-01-17T21:35:49.368Z,81.20
2023-01-17T21:38:16.100Z,81.40
2023-01-17T21:40:43.072Z,81.20
2023-01-17T21:43:09.955Z,81.20
2023-01-17T21:45:40.345Z,81.30
2023-01-17T21:48:07.764Z,81.30
2023-01-17T21:50:34.497Z,81.30
2023-01-17T21:53:01.175Z,82.00
2023-01-17T21:55:27.951Z,81.20
2023-01-17T21:57:54.873Z,81.20
2023-01-17T22:00:21.722Z,81.20
2023-01-17T22:02:48.577Z,81.20
2023-01-17T22:05:15.450Z,81.20
2023-01-17T22:07:42.247Z,81.20
2023-01-17T22:10:09.778Z,81.20
2023-01-17T22:12:36.440Z,81.30
2023-01-17T22:15:03.239Z,81.30
2023-01-17T22:17:29.946Z,81.30
2023-01-17T22:19:56.641Z,81.30
2023-01-17T22:22:23.417Z,81.30
2023-01-17T22:24:50.126Z,81.30
2023-01-17T22:27:17.075Z,81.40
2023-01-17T22:29:43.886Z,81.40
2023-01-17T22:32:10.578Z,81.40
2023-01-17T22:34:37.326Z,81.40
2023-01-17T22:37:04.036Z,81.30
2023-01-17T22:39:30.821Z,81.30
2023-01-17T22:41:58.591Z,81.30
2023-01-17T22:44:25.511Z,81.30
2023-01-17T22:46:52.201Z,81.30
2023-01-17T22:49:18.913Z,81.30
2023-01-17T22:51:45.601Z,81.40
2023-01-17T22:54:12.344Z,81.30
2023-01-17T22:56:40.224Z,81.40
2023-01-17T22:59:07.031Z,81.40
2023-01-17T23:01:33.714Z,81.40
2023-01-17T23:04:01.964Z,81.40
2023-01-17T23:06:36.308Z,81.40
2023-01-17T23:09:08.785Z,81.40
2023-01-17T23:11:36.345Z,81.40
2023-01-17T23:14:03.148Z,81.30
2023-01-17T23:16:29.816Z,81.30
2023-01-17T23:18:56.509Z,81.40
2023-01-17T23:21:23.265Z,81.40
2023-01-17T23:23:49.962Z,81.40
2023-01-17T23:26:16.655Z,81.40
2023-01-17T23:28:43.471Z,81.40
2023-01-17T23:31:10.274Z,81.40
2023-01-17T23:33:37.776Z,81.50
2023-01-17T23:36:04.671Z,81.40
2023-01-17T23:38:31.481Z,81.40
2023-01-17T23:41:05.159Z,81.40
2023-01-17T23:43:32.242Z,81.40
2023-01-17T23:45:59.013Z,81.40
2023-01-17T23:48:25.732Z,81.50
2023-01-17T23:50:55.977Z,81.40
2023-01-17T23:53:22.681Z,81.40
2023-01-17T23:55:57.391Z,81.40
2023-01-17T23:58:25.793Z,81.40
